Time;durP1;ratioP1;P1;durP2;ratioP2;P2;SDS_P1;SDS_P2;PMS_P1;PMS_P2;Temp;Humidity;BMP_temperature;BMP_pressure;BME280_temperature;BME280_humidity;BME280_pressure;Samples;Min_cycle;Max_cycle;Signal;HPM_P1;HPM_P2
2023/06/21 00:00:15;;;;;;;14.88;12.10;;;22.50;99.90;;;;;;2602765;54;20038;31
2023/06/21 00:02:55;;;;;;;13.90;12.50;;;22.60;99.90;;;;;;2602768;54;20026;31
2023/06/21 00:05:34;;;;;;;13.90;12.55;;;22.50;99.90;;;;;;2771931;31;21720;31
2023/06/21 00:08:11;;;;;;;13.82;12.52;;;22.40;99.90;;;;;;2602717;54;20030;31
2023/06/21 00:10:47;;;;;;;14.13;12.68;;;22.40;99.90;;;;;;2602712;54;20748;31
2023/06/21 00:13:22;;;;;;;14.35;12.88;;;22.40;99.90;;;;;;2602847;54;20986;31
2023/06/21 00:15:59;;;;;;;14.02;12.57;;;22.30;99.90;;;;;;2602830;54;20847;31
2023/06/21 00:18:35;;;;;;;13.93;12.63;;;22.30;99.90;;;;;;2602882;54;20031;31
2023/06/21 00:21:10;;;;;;;14.80;13.40;;;22.20;99.90;;;;;;2602820;54;20030;31
2023/06/21 00:23:48;;;;;;;14.47;13.17;;;22.20;99.90;;;;;;2602087;54;20087;31
2023/06/21 00:26:25;;;;;;;13.98;12.63;;;22.10;99.90;;;;;;2602810;54;20027;31
2023/06/21 00:29:02;;;;;;;15.25;12.90;;;22.00;99.90;;;;;;2614495;47;20120;31
2023/06/21 00:31:40;;;;;;;14.70;13.20;;;22.00;99.90;;;;;;2602900;54;20960;31
2023/06/21 00:34:19;;;;;;;14.65;13.25;;;21.90;99.90;;;;;;2602148;54;20830;31
2023/06/21 00:36:55;;;;;;;14.63;13.23;;;21.80;99.90;;;;;;2602593;54;20731;31
2023/06/21 00:39:32;;;;;;;14.93;13.23;;;21.80;99.90;;;;;;2621079;47;22466;31
2023/06/21 00:42:08;;;;;;;15.80;14.25;;;21.80;99.90;;;;;;2602893;54;20057;31
2023/06/21 00:44:50;;;;;;;16.13;14.35;;;21.70;99.90;;;;;;2601890;54;20081;31
2023/06/21 00:47:27;;;;;;;16.02;13.77;;;21.60;99.90;;;;;;2601686;54;20750;31
2023/06/21 00:50:07;;;;;;;14.65;12.98;;;21.60;99.90;;;;;;2700100;39;21661;31
2023/06/21 00:52:43;;;;;;;14.90;13.13;;;21.50;99.90;;;;;;2609176;47;20939;31
2023/06/21 00:55:23;;;;;;;15.30;13.80;;;21.50;99.90;;;;;;2617127;47;20979;31
2023/06/21 00:57:59;;;;;;;13.85;12.55;;;21.50;99.90;;;;;;2602398;54;20908;31
2023/06/21 01:00:35;;;;;;;16.48;13.65;;;21.50;99.90;;;;;;2602441;54;20034;31
2023/06/21 01:03:10;;;;;;;15.20;13.30;;;21.60;99.90;;;;;;2602376;54;20874;31
2023/06/21 01:05:47;;;;;;;15.13;13.73;;;21.60;99.90;;;;;;2602547;54;20121;31
2023/06/21 01:08:27;;;;;;;;;;;21.50;99.90;;;;;;2616398;47;20026;31
2023/06/21 01:11:09;;;;;;;14.73;13.33;;;21.50;99.90;;;;;;2606647;47;19934;31
2023/06/21 01:13:53;;;;;;;15.50;13.88;;;21.50;99.90;;;;;;2602964;54;20101;31
2023/06/21 01:16:28;;;;;;;14.80;13.43;;;21.50;99.90;;;;;;2603425;54;20027;31
2023/06/21 01:19:03;;;;;;;15.38;13.88;;;21.40;99.90;;;;;;2603367;54;20038;31
2023/06/21 01:21:39;;;;;;;15.75;14.13;;;21.30;99.90;;;;;;2602591;54;20034;31
2023/06/21 01:24:25;;;;;;;15.93;14.32;;;21.30;99.90;;;;;;2603423;54;20027;31
2023/06/21 01:27:09;;;;;;;16.00;14.40;;;21.30;99.90;;;;;;2603241;54;20038;31
2023/06/21 01:29:55;;;;;;;17.30;15.23;;;21.30;99.90;;;;;;2603423;54;20029;31
2023/06/21 01:32:33;;;;;;;17.40;15.70;;;21.30;99.90;;;;;;2603463;54;20030;31
2023/06/21 01:35:12;;;;;;;16.08;14.57;;;21.10;99.90;;;;;;2603393;54;20663;31
2023/06/21 01:37:47;;;;;;;16.75;14.95;;;21.10;99.90;;;;;;2603217;54;20769;31
2023/06/21 01:40:24;;;;;;;16.90;15.10;;;21.10;99.90;;;;;;2602722;54;21029;31
2023/06/21 01:42:59;;;;;;;17.98;16.20;;;21.10;99.90;;;;;;2602641;54;20662;31
2023/06/21 01:45:39;;;;;;;17.43;15.73;;;21.00;99.90;;;;;;2701613;39;21615;31
2023/06/21 01:48:15;;;;;;;16.13;14.37;;;21.00;99.90;;;;;;2602395;54;21141;31
2023/06/21 01:50:50;;;;;;;17.20;15.43;;;20.90;99.90;;;;;;2602606;54;21279;31
2023/06/21 01:53:41;;;;;;;16.88;15.27;;;20.90;99.90;;;;;;2603225;54;20764;31
2023/06/21 01:56:20;;;;;;;17.48;14.95;;;20.80;99.90;;;;;;2603128;54;20667;31
2023/06/21 01:58:55;;;;;;;17.40;15.80;;;20.90;99.90;;;;;;2603178;54;20796;31
2023/06/21 02:01:33;;;;;;;;;;;20.80;99.90;;;;;;2622195;46;20886;31
2023/06/21 02:04:09;;;;;;;17.33;15.52;;;20.80;99.90;;;;;;2602560;54;21063;31
2023/06/21 02:06:46;;;;;;;17.87;16.17;;;20.70;99.90;;;;;;2621856;46;20026;31
2023/06/21 02:09:23;;;;;;;18.63;15.48;;;20.70;99.90;;;;;;2603276;54;20881;31
2023/06/21 02:12:01;;;;;;;16.00;14.38;;;20.70;99.90;;;;;;2603129;54;20866;31
2023/06/21 02:14:37;;;;;;;17.33;15.43;;;20.60;99.90;;;;;;2602399;54;20758;31
2023/06/21 02:17:19;;;;;;;18.63;16.63;;;20.60;99.90;;;;;;2603011;54;20036;31
2023/06/21 02:19:55;;;;;;;18.27;16.48;;;20.60;99.90;;;;;;2603255;54;20027;31
2023/06/21 02:22:33;;;;;;;16.05;14.45;;;20.50;99.90;;;;;;2603125;54;20850;31
2023/06/21 02:25:09;;;;;;;18.00;16.17;;;20.50;99.90;;;;;;2621613;46;21199;31
2023/06/21 02:27:44;;;;;;;;;;;20.50;99.90;;;;;;2603702;54;20026;31
2023/06/21 02:30:20;;;;;;;17.95;16.15;;;20.50;99.90;;;;;;2602981;54;20726;31
2023/06/21 02:32:57;;;;;;;15.77;14.27;;;20.50;99.90;;;;;;2621419;46;20093;31
2023/06/21 02:35:35;;;;;;;16.25;14.73;;;20.50;99.90;;;;;;2603153;54;20029;31
2023/06/21 02:38:12;;;;;;;17.90;15.17;;;20.40;99.90;;;;;;2603179;54;20057;31
2023/06/21 02:40:49;;;;;;;18.55;16.38;;;20.50;99.90;;;;;;2603057;54;20078;31
2023/06/21 02:43:28;;;;;;;17.40;15.60;;;20.40;99.90;;;;;;2603078;54;20027;31
2023/06/21 02:46:04;;;;;;;17.08;15.48;;;20.40;99.90;;;;;;2603209;54;20072;31
2023/06/21 02:48:42;;;;;;;18.00;15.73;;;20.30;99.90;;;;;;2620949;46;20031;31
2023/06/21 02:51:20;;;;;;;19.10;17.20;;;20.30;99.90;;;;;;2602482;54;20945;31
2023/06/21 02:53:56;;;;;;;18.10;15.63;;;20.30;99.90;;;;;;2603125;54;20125;31
2023/06/21 02:56:40;;;;;;;16.20;14.50;;;20.30;99.90;;;;;;2603096;54;20038;31
2023/06/21 02:59:18;;;;;;;18.45;16.42;;;20.40;99.90;;;;;;2602804;54;20936;31
2023/06/21 03:01:56;;;;;;;17.38;15.65;;;20.40;99.90;;;;;;2602868;54;20030;31
2023/06/21 03:04:37;;;;;;;18.30;15.15;;;20.40;99.90;;;;;;2621519;46;20022;31
2023/06/21 03:07:13;;;;;;;19.38;17.38;;;20.40;99.90;;;;;;2701551;39;21609;31
2023/06/21 03:09:51;;;;;;;17.98;16.17;;;20.40;99.90;;;;;;2602424;54;20881;31
2023/06/21 03:12:29;;;;;;;17.23;15.48;;;20.40;99.90;;;;;;2602334;54;20939;31
2023/06/21 03:15:05;;;;;;;18.77;16.98;;;20.40;99.90;;;;;;2602333;54;20746;31
2023/06/21 03:17:42;;;;;;;;;;;20.40;99.90;;;;;;2602600;54;20915;31
2023/06/21 03:20:22;;;;;;;19.30;17.25;;;20.40;99.90;;;;;;2602362;54;20742;31
2023/06/21 03:23:00;;;;;;;18.50;16.70;;;20.40;99.90;;;;;;2602306;54;20044;31
2023/06/21 03:25:37;;;;;;;17.95;16.15;;;20.40;99.90;;;;;;2609138;46;20034;31
2023/06/21 03:28:12;;;;;;;18.60;16.65;;;20.40;99.90;;;;;;2601799;54;20057;31
2023/06/21 03:30:48;;;;;;;18.60;16.55;;;20.40;99.90;;;;;;2602347;54;20912;31
2023/06/21 03:33:30;;;;;;;20.08;15.90;;;20.40;99.90;;;;;;2601976;54;20023;31
2023/06/21 03:36:10;;;;;;;20.93;17.07;;;20.50;99.90;;;;;;2601828;54;20030;31
2023/06/21 03:38:46;;;;;;;16.83;15.17;;;20.50;99.90;;;;;;2602826;54;20239;31
2023/06/21 03:41:27;;;;;;;18.52;16.58;;;20.50;99.90;;;;;;2602832;54;21059;31
2023/06/21 03:44:04;;;;;;;19.08;16.73;;;20.50;99.90;;;;;;2602942;54;20943;31
2023/06/21 03:46:39;;;;;;;19.10;16.60;;;20.60;99.90;;;;;;2621460;46;20887;31
2023/06/21 03:49:17;;;;;;;20.37;16.90;;;20.60;99.90;;;;;;2602860;54;20234;31
2023/06/21 03:51:54;;;;;;;18.73;16.55;;;20.50;99.90;;;;;;2602536;54;20085;31
2023/06/21 03:54:31;;;;;;;18.67;15.48;;;20.60;99.90;;;;;;2603081;54;20894;31
2023/06/21 03:57:08;;;;;;;17.50;15.40;;;20.70;99.90;;;;;;2602945;54;20976;31
2023/06/21 03:59:44;;;;;;;16.70;15.10;;;20.70;99.90;;;;;;2602994;54;20030;31
2023/06/21 04:02:21;;;;;;;17.60;15.80;;;20.70;99.90;;;;;;2602856;54;20072;31
2023/06/21 04:04:57;;;;;;;17.40;15.50;;;20.80;99.90;;;;;;2621312;46;20029;31
2023/06/21 04:07:36;;;;;;;17.40;15.63;;;20.80;99.90;;;;;;2602870;54;20521;31
2023/06/21 04:10:13;;;;;;;15.73;14.25;;;20.80;99.90;;;;;;2602162;54;20830;31
2023/06/21 04:12:49;;;;;;;18.13;16.40;;;20.80;99.90;;;;;;2602970;54;20881;31
2023/06/21 04:15:26;;;;;;;19.02;17.20;;;20.90;99.90;;;;;;2602813;54;20842;31
2023/06/21 04:18:07;;;;;;;18.50;16.52;;;20.90;99.90;;;;;;2601820;54;20048;31
2023/06/21 04:20:43;;;;;;;18.27;16.25;;;20.90;99.90;;;;;;2620516;46;20030;31
2023/06/21 04:23:21;;;;;;;18.47;16.57;;;20.90;99.90;;;;;;2602832;54;20922;31
2023/06/21 04:25:56;;;;;;;19.33;17.42;;;20.90;99.90;;;;;;2621096;46;22611;31
2023/06/21 04:28:33;;;;;;;17.47;15.53;;;21.00;99.90;;;;;;2602828;54;20743;31
2023/06/21 04:31:09;;;;;;;15.32;13.73;;;21.00;99.90;;;;;;2602563;54;20640;31
2023/06/21 04:33:44;;;;;;;18.92;15.68;;;21.00;99.90;;;;;;2602544;54;20959;31
2023/06/21 04:36:19;;;;;;;18.05;16.30;;;21.10;99.90;;;;;;2602676;54;20054;31
2023/06/21 04:38:59;;;;;;;17.93;16.23;;;21.10;99.90;;;;;;2620714;47;20050;31
2023/06/21 04:41:37;;;;;;;17.73;16.00;;;21.10;99.90;;;;;;2700388;39;20553;31
2023/06/21 04:44:17;;;;;;;17.45;15.77;;;21.20;99.90;;;;;;2602594;54;20054;31
2023/06/21 04:49:25;;;;;;;19.03;15.47;;;21.20;99.90;;;;;;2701949;39;20460;31
2023/06/21 04:52:00;;;;;;;20.90;16.63;;;21.30;99.90;;;;;;2603426;54;20239;31
2023/06/21 04:54:39;;;;;;;19.65;15.93;;;21.30;99.90;;;;;;2618531;46;20026;31
2023/06/21 04:57:16;;;;;;;19.85;15.77;;;21.40;99.90;;;;;;2602738;54;20900;31
2023/06/21 04:59:52;;;;;;;18.95;17.10;;;21.40;99.90;;;;;;2603344;54;20749;31
2023/06/21 05:02:32;;;;;;;;;;;21.50;99.90;;;;;;2603311;54;20749;31
2023/06/21 05:05:12;;;;;;;17.50;14.25;;;21.50;99.90;;;;;;2603551;54;20667;31
2023/06/21 05:07:52;;;;;;;15.45;14.05;;;21.50;99.90;;;;;;2602585;54;20022;31
2023/06/21 05:10:35;;;;;;;16.60;14.90;;;21.60;99.90;;;;;;2720259;39;20379;31
2023/06/21 05:13:10;;;;;;;18.40;16.20;;;21.60;99.90;;;;;;2602749;54;20785;31
2023/06/21 05:15:46;;;;;;;16.15;14.48;;;21.60;99.90;;;;;;2621753;46;22410;31
2023/06/21 05:18:22;;;;;;;17.37;15.47;;;21.70;99.90;;;;;;2603352;54;20950;31
2023/06/21 05:20:58;;;;;;;19.60;15.85;;;21.70;99.90;;;;;;2603258;54;20030;31
2023/06/21 05:23:34;;;;;;;19.38;15.75;;;21.70;99.90;;;;;;2603351;54;20023;31
2023/06/21 05:26:12;;;;;;;17.52;15.73;;;21.70;99.90;;;;;;2603603;54;20866;31
2023/06/21 05:28:51;;;;;;;32.65;15.75;;;21.70;99.90;;;;;;2603332;54;20026;31
2023/06/21 05:31:28;;;;;;;21.48;15.60;;;21.70;99.90;;;;;;2613656;46;20037;31
2023/06/21 05:34:04;;;;;;;18.63;14.05;;;21.70;99.90;;;;;;2602464;54;20755;31
2023/06/21 05:36:41;;;;;;;25.10;15.32;;;21.80;99.90;;;;;;2602419;54;20049;31
2023/06/21 05:39:19;;;;;;;27.20;15.73;;;21.80;99.90;;;;;;2701664;39;20476;31
2023/06/21 05:41:59;;;;;;;23.27;16.33;;;21.80;99.90;;;;;;2603246;54;20026;31
2023/06/21 05:44:36;;;;;;;17.60;15.57;;;21.90;99.90;;;;;;2603334;54;21527;31
2023/06/21 05:47:15;;;;;;;;;;;21.90;99.90;;;;;;2603395;54;20022;31
2023/06/21 05:49:53;;;;;;;16.40;14.18;;;21.90;99.90;;;;;;2602623;54;20651;31
2023/06/21 05:52:28;;;;;;;17.30;14.35;;;22.00;99.90;;;;;;2616851;46;20057;31
2023/06/21 05:55:03;;;;;;;18.00;15.40;;;22.00;99.90;;;;;;2621730;46;20064;31
2023/06/21 05:57:41;;;;;;;19.67;16.30;;;22.00;99.90;;;;;;2603049;54;20027;31
2023/06/21 06:00:20;;;;;;;18.98;16.50;;;22.00;99.90;;;;;;2603342;54;20887;31
2023/06/21 06:02:55;;;;;;;22.33;17.77;;;22.00;99.90;;;;;;2621703;46;20597;31
2023/06/21 06:05:34;;;;;;;20.90;16.10;;;22.00;99.90;;;;;;2603108;54;20883;31
2023/06/21 06:08:09;;;;;;;21.52;17.45;;;22.10;99.90;;;;;;2612911;46;20754;31
2023/06/21 06:10:47;;;;;;;22.70;18.50;;;22.00;99.90;;;;;;2621782;46;20048;31
2023/06/21 06:13:25;;;;;;;18.63;16.73;;;22.00;99.90;;;;;;2603355;54;22570;31
2023/06/21 06:16:02;;;;;;;20.10;18.00;;;22.00;99.90;;;;;;2603107;54;20026;31
2023/06/21 06:18:40;;;;;;;18.00;16.10;;;22.00;99.90;;;;;;2603061;54;20239;31
2023/06/21 06:21:21;;;;;;;21.40;16.98;;;22.00;99.90;;;;;;2602334;54;20938;31
2023/06/21 06:23:56;;;;;;;21.20;18.02;;;22.00;99.90;;;;;;2772945;31;20608;31
2023/06/21 06:26:32;;;;;;;;;;;21.90;99.90;;;;;;2602675;54;20894;31
2023/06/21 06:29:16;;;;;;;18.00;16.00;;;21.90;99.90;;;;;;2602559;54;19941;31
2023/06/21 06:31:54;;;;;;;22.17;18.00;;;21.80;99.90;;;;;;2603108;54;20903;31
2023/06/21 06:34:31;;;;;;;22.67;19.37;;;21.70;99.90;;;;;;2602791;54;20030;31
2023/06/21 06:37:07;;;;;;;21.60;18.67;;;21.70;99.90;;;;;;2603297;54;20086;31
2023/06/21 06:39:54;;;;;;;23.38;19.38;;;21.60;99.90;;;;;;2602806;54;21528;31
2023/06/21 06:42:30;;;;;;;22.80;20.40;;;21.60;99.90;;;;;;2612380;46;20026;31
2023/06/21 06:45:10;;;;;;;26.60;20.98;;;21.50;99.90;;;;;;2602968;54;20088;31
2023/06/21 06:47:47;;;;;;;27.15;21.45;;;21.40;99.90;;;;;;2603005;54;20077;31
2023/06/21 06:50:23;;;;;;;23.27;20.87;;;21.30;99.90;;;;;;2613031;46;20189;31
2023/06/21 06:53:00;;;;;;;24.37;19.73;;;21.30;99.90;;;;;;2603284;54;20247;31
2023/06/21 06:55:38;;;;;;;23.83;18.60;;;21.30;99.90;;;;;;2603148;54;20916;31
2023/06/21 06:58:17;;;;;;;23.27;19.13;;;21.40;99.90;;;;;;2603068;54;20934;31
2023/06/21 07:00:56;;;;;;;23.33;18.40;;;21.40;99.90;;;;;;2602279;54;20949;31
2023/06/21 07:03:32;;;;;;;23.33;20.20;;;21.40;99.90;;;;;;2603220;54;20089;31
2023/06/21 07:06:06;;;;;;;21.85;19.55;;;21.50;99.90;;;;;;2621273;46;22489;31
2023/06/21 07:08:44;;;;;;;25.08;22.42;;;21.50;99.90;;;;;;2603244;54;20029;31
2023/06/21 07:11:20;;;;;;;25.50;20.83;;;21.50;99.90;;;;;;2602735;54;20768;31
2023/06/21 07:13:56;;;;;;;20.85;18.75;;;21.50;99.90;;;;;;2602909;54;20033;31
2023/06/21 07:16:38;;;;;;;31.88;22.67;;;21.60;99.90;;;;;;2603233;54;20756;31
2023/06/21 07:19:13;;;;;;;30.00;22.80;;;21.60;99.90;;;;;;2701294;39;20388;31
2023/06/21 07:21:53;;;;;;;24.65;22.02;;;21.60;99.90;;;;;;2621242;46;20052;31
2023/06/21 07:24:29;;;;;;;25.75;22.98;;;21.70;99.90;;;;;;2602107;54;20060;31
2023/06/21 07:27:05;;;;;;;27.73;23.25;;;21.70;99.90;;;;;;2602267;54;20896;31
2023/06/21 07:29:40;;;;;;;27.10;23.33;;;21.70;99.90;;;;;;2603066;54;20080;31
2023/06/21 07:32:22;;;;;;;28.88;21.88;;;21.70;99.90;;;;;;2602922;54;20032;31
2023/06/21 07:35:02;;;;;;;27.50;21.70;;;21.60;99.90;;;;;;2602957;54;20041;31
2023/06/21 07:37:39;;;;;;;27.85;21.30;;;21.80;99.90;;;;;;2621314;46;20501;31
2023/06/21 07:40:17;;;;;;;33.38;27.45;;;21.80;99.90;;;;;;2764079;31;20022;31
2023/06/21 07:42:55;;;;;;;26.55;23.00;;;21.80;99.90;;;;;;2603032;54;20053;31
2023/06/21 07:45:32;;;;;;;31.40;28.10;;;21.70;99.90;;;;;;2602149;54;21991;31
2023/06/21 07:48:12;;;;;;;32.08;27.65;;;21.60;99.90;;;;;;2602293;54;20027;31
2023/06/21 07:50:47;;;;;;;34.65;29.25;;;21.60;99.90;;;;;;2620984;46;20081;31
2023/06/21 07:53:23;;;;;;;21.08;18.80;;;21.60;99.90;;;;;;2603086;54;20573;31
2023/06/21 07:56:00;;;;;;;30.40;24.63;;;21.60;99.90;;;;;;2602896;54;20046;31
2023/06/21 07:58:37;;;;;;;31.77;28.60;;;21.70;99.90;;;;;;2602730;54;20045;31
2023/06/21 08:01:13;;;;;;;26.05;22.45;;;21.80;99.90;;;;;;2602691;54;20027;31
2023/06/21 08:03:52;;;;;;;31.25;27.55;;;21.90;99.90;;;;;;2621373;46;20027;31
2023/06/21 08:06:26;;;;;;;27.67;24.77;;;22.00;99.90;;;;;;2602079;54;22028;31
2023/06/21 08:09:03;;;;;;;30.75;26.58;;;22.10;99.90;;;;;;2621018;46;20035;31
2023/06/21 08:11:39;;;;;;;28.48;24.95;;;22.30;99.90;;;;;;2602614;54;20037;31
2023/06/21 08:14:16;;;;;;;31.73;27.60;;;22.50;99.90;;;;;;2601931;54;20057;31
2023/06/21 08:16:52;;;;;;;31.48;25.70;;;22.80;99.90;;;;;;2603087;54;20037;31
2023/06/21 08:19:29;;;;;;;;;;;23.00;99.90;;;;;;2602992;54;20874;31
2023/06/21 08:22:10;;;;;;;29.50;26.40;;;23.20;99.90;;;;;;2602321;54;19934;31
2023/06/21 08:24:46;;;;;;;26.80;24.07;;;23.20;99.90;;;;;;2602735;54;20294;31
2023/06/21 08:27:23;;;;;;;24.83;22.23;;;23.30;99.90;;;;;;2602756;54;20875;31
2023/06/21 08:29:59;;;;;;;27.00;24.40;;;23.40;99.90;;;;;;2602833;54;20049;31
2023/06/21 08:32:38;;;;;;;26.92;24.35;;;23.50;99.90;;;;;;2621372;46;20063;31
2023/06/21 08:35:14;;;;;;;23.15;20.70;;;23.50;99.90;;;;;;2602801;54;20026;31
2023/06/21 08:38:00;;;;;;;24.60;22.00;;;23.60;99.90;;;;;;2602559;54;20049;31
2023/06/21 08:40:56;;;;;;;23.83;21.53;;;23.70;99.90;;;;;;2602639;54;20027;31
2023/06/21 08:43:31;;;;;;;24.77;22.42;;;23.90;99.90;;;;;;2621160;47;20033;31
2023/06/21 08:46:10;;;;;;;20.95;18.95;;;24.00;99.90;;;;;;2602681;54;20038;31
2023/06/21 08:48:47;;;;;;;21.27;19.05;;;24.30;99.90;;;;;;2601903;54;20894;31
2023/06/21 08:51:23;;;;;;;18.15;16.38;;;24.60;99.90;;;;;;2602529;54;20023;31
2023/06/21 08:54:04;;;;;;;19.08;17.27;;;24.90;99.90;;;;;;2601930;54;21003;31
2023/06/21 08:56:44;;;;;;;15.35;13.75;;;25.30;99.90;;;;;;2602825;54;20034;31
2023/06/21 08:59:25;;;;;;;14.35;12.90;;;25.70;99.90;;;;;;2601880;54;21882;31
2023/06/21 09:02:02;;;;;;;15.50;14.00;;;26.10;99.90;;;;;;2604523;47;20026;31
2023/06/21 09:04:41;;;;;;;15.25;13.65;;;26.40;99.90;;;;;;2601573;54;20034;31
2023/06/21 09:07:20;;;;;;;16.42;12.57;;;26.80;99.90;;;;;;2602460;54;21161;31
2023/06/21 09:10:03;;;;;;;11.50;10.30;;;27.00;99.90;;;;;;2601636;54;20116;31
2023/06/21 09:12:41;;;;;;;15.35;10.50;;;27.30;99.90;;;;;;2771199;31;20578;31
2023/06/21 09:15:20;;;;;;;11.18;10.07;;;27.70;99.90;;;;;;2602543;54;20022;31
2023/06/21 09:17:56;;;;;;;13.30;11.45;;;28.00;99.90;;;;;;2601626;54;20572;31
2023/06/21 09:20:40;;;;;;;11.75;9.35;;;28.40;99.90;;;;;;2601402;54;20097;31
2023/06/21 09:23:16;;;;;;;9.98;8.98;;;28.70;99.90;;;;;;2601101;54;20066;31
2023/06/21 09:25:55;;;;;;;9.95;8.95;;;29.10;99.90;;;;;;2615761;47;20800;31
2023/06/21 09:28:31;;;;;;;19.00;9.13;;;29.30;99.90;;;;;;2602254;54;20844;31
2023/06/21 09:31:07;;;;;;;10.02;8.38;;;29.60;99.90;;;;;;2601416;54;20881;31
2023/06/21 09:33:43;;;;;;;13.53;9.37;;;29.90;99.90;;;;;;2601809;54;20025;31
2023/06/21 09:36:26;;;;;;;10.20;9.27;;;30.00;99.90;;;;;;2603249;54;20034;31
2023/06/21 09:39:10;;;;;;;10.30;9.30;;;30.20;99.90;;;;;;2603388;54;20901;31
2023/06/21 09:41:49;;;;;;;10.40;8.65;;;30.40;99.90;;;;;;2603073;54;20034;31
2023/06/21 09:44:25;;;;;;;10.45;8.70;;;30.60;99.90;;;;;;2602940;54;20026;31
2023/06/21 09:47:00;;;;;;;9.00;8.00;;;30.80;99.90;;;;;;2621250;46;20086;31
2023/06/21 09:49:36;;;;;;;8.82;7.55;;;30.90;99.90;;;;;;2621230;46;20056;31
2023/06/21 09:52:13;;;;;;;11.32;8.57;;;31.10;99.90;;;;;;2621611;46;20717;31
2023/06/21 09:54:50;;;;;;;15.98;8.18;;;31.20;99.90;;;;;;2602160;54;20871;31
2023/06/21 09:57:29;;;;;;;10.68;7.47;;;31.30;99.90;;;;;;2602350;54;22239;31
2023/06/21 10:00:13;;;;;;;8.75;7.53;;;31.40;99.90;;;;;;2603018;54;20874;31
2023/06/21 10:02:53;;;;;;;8.50;7.35;;;31.60;99.90;;;;;;2602144;54;20906;31
2023/06/21 10:05:29;;;;;;;8.50;6.28;;;31.70;99.90;;;;;;2603264;54;20889;31
2023/06/21 10:08:07;;;;;;;9.93;6.47;;;31.80;99.90;;;;;;2621574;46;20581;31
2023/06/21 10:10:45;;;;;;;13.10;7.15;;;31.80;99.90;;;;;;2602934;54;20933;31
2023/06/21 10:13:28;;;;;;;9.82;6.65;;;31.90;99.90;;;;;;2602528;54;20030;31
2023/06/21 10:16:04;;;;;;;9.80;6.00;;;31.80;99.90;;;;;;2621616;46;20029;31
2023/06/21 10:18:42;;;;;;;9.80;5.60;;;31.90;99.90;;;;;;2602436;54;20042;31
2023/06/21 10:21:21;;;;;;;8.65;6.25;;;32.00;99.90;;;;;;2616235;46;20912;31
2023/06/21 10:24:00;;;;;;;7.75;6.10;;;32.10;99.90;;;;;;2602422;54;20023;31
2023/06/21 10:26:37;;;;;;;9.07;6.10;;;32.10;99.90;;;;;;2701618;39;20532;31
2023/06/21 10:29:21;;;;;;;8.10;6.55;;;32.10;99.90;;;;;;2603164;54;20874;31
2023/06/21 10:31:58;;;;;;;9.75;6.78;;;32.10;99.90;;;;;;2621832;46;20029;31
2023/06/21 10:34:43;;;;;;;8.50;5.78;;;32.10;99.90;;;;;;2603136;54;20903;31
2023/06/21 10:37:21;;;;;;;7.25;5.88;;;32.20;99.90;;;;;;2603211;54;20741;31
2023/06/21 10:39:58;;;;;;;8.00;6.30;;;32.30;99.90;;;;;;2603283;54;20034;31
2023/06/21 10:42:46;;;;;;;8.77;6.13;;;32.40;99.90;;;;;;2603172;54;20941;31
2023/06/21 10:45:25;;;;;;;7.15;6.28;;;32.50;99.90;;;;;;2603093;54;20054;31
2023/06/21 10:48:01;;;;;;;9.00;6.88;;;32.50;99.90;;;;;;2701862;39;20421;31
2023/06/21 10:50:37;;;;;;;9.05;6.50;;;32.60;99.90;;;;;;2603253;54;20033;31
2023/06/21 10:53:18;;;;;;;9.57;7.30;;;32.60;99.90;;;;;;2603032;54;20884;31
2023/06/21 10:55:57;;;;;;;9.52;7.78;;;32.70;99.90;;;;;;2603225;54;20751;31
2023/06/21 10:58:36;;;;;;;10.67;8.07;;;32.70;99.90;;;;;;2603254;54;20101;31
2023/06/21 11:01:16;;;;;;;14.73;8.57;;;32.70;99.90;;;;;;2603179;54;20030;31
2023/06/21 11:03:53;;;;;;;8.85;7.28;;;32.80;99.90;;;;;;2603226;54;20246;31
2023/06/21 11:06:34;;;;;;;10.05;8.40;;;32.80;99.90;;;;;;2621589;46;20027;31
2023/06/21 11:09:16;;;;;;;9.18;8.30;;;32.80;99.90;;;;;;2603079;54;20923;31
2023/06/21 11:11:54;;;;;;;11.98;7.60;;;32.80;99.90;;;;;;2603435;54;20031;31
2023/06/21 11:14:33;;;;;;;8.57;7.00;;;32.80;99.90;;;;;;2603205;54;20886;31
2023/06/21 11:17:16;;;;;;;7.95;7.25;;;32.70;99.90;;;;;;2621551;46;20919;31
2023/06/21 11:19:53;;;;;;;10.38;7.63;;;32.60;99.90;;;;;;2701503;39;21446;31
2023/06/21 11:22:31;;;;;;;8.13;7.13;;;32.60;99.90;;;;;;2621395;46;20057;31
2023/06/21 11:25:21;;;;;;;10.40;8.50;;;32.60;99.90;;;;;;2603186;54;20026;31
2023/06/21 11:28:29;;;;;;;9.45;7.50;;;32.50;99.90;;;;;;2701584;39;20429;31
2023/06/21 11:31:08;;;;;;;9.65;7.55;;;32.60;99.90;;;;;;2606523;46;20877;31
2023/06/21 11:34:03;;;;;;;13.52;9.05;;;32.50;99.90;;;;;;2613778;46;20093;31
2023/06/21 11:36:44;;;;;;;10.82;9.73;;;32.60;99.90;;;;;;2602886;54;20031;31
2023/06/21 11:39:26;;;;;;;10.60;8.60;;;32.50;99.90;;;;;;2603247;54;20023;31
2023/06/21 11:42:05;;;;;;;10.38;9.15;;;32.50;99.90;;;;;;2603022;54;20034;31
2023/06/21 11:44:41;;;;;;;10.13;9.07;;;32.30;99.90;;;;;;2602782;54;20074;31
2023/06/21 11:47:21;;;;;;;9.80;8.82;;;32.10;99.90;;;;;;2701208;39;20548;31
2023/06/21 11:50:18;;;;;;;11.25;9.20;;;32.10;99.90;;;;;;2602298;54;20030;31
2023/06/21 11:52:56;;;;;;;11.30;10.02;;;32.00;99.90;;;;;;2602945;54;21492;31
2023/06/21 11:58:09;;;;;;;10.95;9.25;;;31.80;99.90;;;;;;2621433;46;20868;31
2023/06/21 12:00:48;;;;;;;10.30;9.30;;;31.70;99.90;;;;;;2602937;54;20925;31
2023/06/21 12:03:25;;;;;;;11.75;10.20;;;31.50;99.90;;;;;;2621167;46;22552;31
2023/06/21 12:06:06;;;;;;;11.35;9.60;;;31.50;99.90;;;;;;2602887;54;20961;31
2023/06/21 12:08:43;;;;;;;10.98;9.88;;;31.30;99.90;;;;;;2602686;54;20030;31
2023/06/21 12:11:21;;;;;;;12.27;9.90;;;31.20;99.90;;;;;;2700126;39;20488;31
2023/06/21 12:13:58;;;;;;;13.20;9.80;;;31.10;99.90;;;;;;2602073;54;20031;31
2023/06/21 12:16:34;;;;;;;10.93;9.82;;;31.00;99.90;;;;;;2602568;54;21066;31
2023/06/21 12:19:11;;;;;;;12.50;10.63;;;31.00;99.90;;;;;;2621153;46;20912;31
2023/06/21 12:21:56;;;;;;;13.88;11.05;;;31.10;99.90;;;;;;2602562;54;20862;31
2023/06/21 12:24:32;;;;;;;11.10;10.02;;;31.00;99.90;;;;;;2602683;54;20874;31
2023/06/21 12:27:09;;;;;;;12.55;10.70;;;31.10;99.90;;;;;;2602530;54;20775;31
2023/06/21 12:29:52;;;;;;;12.18;11.02;;;31.10;99.90;;;;;;2602751;54;20858;31
2023/06/21 12:32:30;;;;;;;12.25;9.93;;;31.20;99.90;;;;;;2602662;54;20019;31
2023/06/21 12:35:09;;;;;;;13.23;10.52;;;31.30;99.90;;;;;;2602487;54;20978;31
2023/06/21 12:37:49;;;;;;;14.65;10.57;;;31.30;99.90;;;;;;2602633;54;20026;31
2023/06/21 12:40:26;;;;;;;11.13;9.75;;;31.30;99.90;;;;;;2701062;39;20470;31
2023/06/21 12:43:04;;;;;;;11.05;9.95;;;31.20;99.90;;;;;;2602484;54;20928;31
2023/06/21 12:45:39;;;;;;;11.60;10.50;;;31.30;99.90;;;;;;2602787;54;20510;31
2023/06/21 12:48:22;;;;;;;11.30;10.00;;;31.30;99.90;;;;;;2701348;39;20352;31
2023/06/21 12:50:59;;;;;;;11.90;10.65;;;31.30;99.90;;;;;;2621015;47;20038;31
2023/06/21 12:53:41;;;;;;;11.38;10.27;;;31.30;99.90;;;;;;2602507;54;20030;31
2023/06/21 12:56:17;;;;;;;11.35;10.25;;;31.20;99.90;;;;;;2602546;54;20935;31
2023/06/21 12:58:53;;;;;;;12.60;11.30;;;31.20;99.90;;;;;;2602390;54;20760;31
2023/06/21 13:01:29;;;;;;;10.88;9.88;;;31.10;99.90;;;;;;2601753;54;20036;31
2023/06/21 13:04:07;;;;;;;13.93;9.73;;;31.20;99.90;;;;;;2602175;54;20026;31
2023/06/21 13:06:43;;;;;;;11.02;9.85;;;31.30;99.90;;;;;;2602373;54;20076;31
2023/06/21 13:09:25;;;;;;;13.68;10.10;;;31.40;99.90;;;;;;2602170;54;20889;31
2023/06/21 13:12:03;;;;;;;11.60;9.70;;;31.40;99.90;;;;;;2602525;54;20906;31
2023/06/21 13:14:40;;;;;;;12.80;10.02;;;31.40;99.90;;;;;;2603389;54;20854;31
2023/06/21 13:17:18;;;;;;;10.68;9.68;;;31.50;99.90;;;;;;2622064;46;20581;31
2023/06/21 13:19:54;;;;;;;14.43;10.65;;;31.50;99.90;;;;;;2603176;54;20026;31
2023/06/21 13:22:32;;;;;;;11.23;9.90;;;31.60;99.90;;;;;;2602626;54;20668;31
2023/06/21 13:25:12;;;;;;;10.88;9.77;;;31.80;99.90;;;;;;2602605;54;21345;31
2023/06/21 13:27:49;;;;;;;12.32;11.10;;;31.70;99.90;;;;;;2603385;54;20845;31
2023/06/21 13:30:26;;;;;;;11.63;9.70;;;31.70;99.90;;;;;;2603589;54;20026;31
2023/06/21 13:33:04;;;;;;;10.25;8.30;;;31.80;99.90;;;;;;2603312;54;20112;31
2023/06/21 13:35:43;;;;;;;10.90;8.75;;;31.80;99.90;;;;;;2603266;54;20592;31
2023/06/21 13:38:21;;;;;;;9.32;8.35;;;32.00;99.90;;;;;;2603496;54;20085;31
2023/06/21 13:40:59;;;;;;;8.48;6.30;;;32.00;99.90;;;;;;2603372;54;20825;31
2023/06/21 13:43:41;;;;;;;5.68;4.35;;;32.10;99.90;;;;;;2622143;46;20023;31